sensor_id;sensor_type;location;lat;lon;timestamp;P1;durP1;ratioP1;P2;durP2;ratioP2
4355;SDS011;2191;51.482;7.408;2022-07-29T00:01:47;4.17;;;1.60;;
4355;SDS011;2191;51.482;7.408;2022-07-29T00:04:15;7.97;;;1.90;;
4355;SDS011;2191;51.482;7.408;2022-07-29T00:06:46;8.47;;;2.50;;
4355;SDS011;2191;51.482;7.408;2022-07-29T00:09:16;3.43;;;1.87;;
4355;SDS011;2191;51.482;7.408;2022-07-29T00:11:47;6.13;;;1.90;;
4355;SDS011;2191;51.482;7.408;2022-07-29T00:14:26;4.40;;;2.20;;
4355;SDS011;2191;51.482;7.408;2022-07-29T00:16:59;4.73;;;1.90;;
4355;SDS011;2191;51.482;7.408;2022-07-29T00:19:27;4.10;;;2.03;;
4355;SDS011;2191;51.482;7.408;2022-07-29T00:21:58;10.33;;;1.87;;
4355;SDS011;2191;51.482;7.408;2022-07-29T00:24:27;9.17;;;2.10;;
4355;SDS011;2191;51.482;7.408;2022-07-29T00:26:55;6.50;;;2.00;;
4355;SDS011;2191;51.482;7.408;2022-07-29T00:29:23;8.33;;;2.37;;
4355;SDS011;2191;51.482;7.408;2022-07-29T00:31:59;2.50;;;1.70;;
4355;SDS011;2191;51.482;7.408;2022-07-29T00:34:33;4.40;;;2.00;;
4355;SDS011;2191;51.482;7.408;2022-07-29T00:37:24;3.77;;;2.00;;
4355;SDS011;2191;51.482;7.408;2022-07-29T00:39:54;6.53;;;2.47;;
4355;SDS011;2191;51.482;7.408;2022-07-29T00:42:22;4.33;;;1.60;;
4355;SDS011;2191;51.482;7.408;2022-07-29T00:44:50;8.33;;;1.80;;
4355;SDS011;2191;51.482;7.408;2022-07-29T00:47:20;8.03;;;1.40;;
4355;SDS011;2191;51.482;7.408;2022-07-29T00:49:48;6.83;;;2.20;;
4355;SDS011;2191;51.482;7.408;2022-07-29T00:52:16;5.50;;;2.33;;
4355;SDS011;2191;51.482;7.408;2022-07-29T00:54:46;4.93;;;1.93;;
4355;SDS011;2191;51.482;7.408;2022-07-29T00:57:18;2.03;;;1.40;;
4355;SDS011;2191;51.482;7.408;2022-07-29T00:59:47;3.67;;;1.50;;
4355;SDS011;2191;51.482;7.408;2022-07-29T01:02:15;3.30;;;1.63;;
4355;SDS011;2191;51.482;7.408;2022-07-29T01:04:43;4.13;;;2.20;;
4355;SDS011;2191;51.482;7.408;2022-07-29T01:07:13;3.67;;;1.60;;
4355;SDS011;2191;51.482;7.408;2022-07-29T01:09:45;5.70;;;2.07;;
4355;SDS011;2191;51.482;7.408;2022-07-29T01:12:18;5.30;;;1.93;;
4355;SDS011;2191;51.482;7.408;2022-07-29T01:14:49;4.27;;;1.57;;
4355;SDS011;2191;51.482;7.408;2022-07-29T01:17:21;4.57;;;2.23;;
4355;SDS011;2191;51.482;7.408;2022-07-29T01:19:56;4.03;;;2.00;;
4355;SDS011;2191;51.482;7.408;2022-07-29T01:22:31;3.80;;;2.00;;
4355;SDS011;2191;51.482;7.408;2022-07-29T01:28:40;4.27;;;1.60;;
4355;SDS011;2191;51.482;7.408;2022-07-29T01:31:20;3.20;;;1.83;;
4355;SDS011;2191;51.482;7.408;2022-07-29T01:33:57;6.03;;;2.00;;
4355;SDS011;2191;51.482;7.408;2022-07-29T01:36:30;6.97;;;2.13;;
4355;SDS011;2191;51.482;7.408;2022-07-29T01:39:07;7.00;;;2.00;;
4355;SDS011;2191;51.482;7.408;2022-07-29T01:41:38;5.07;;;1.50;;
4355;SDS011;2191;51.482;7.408;2022-07-29T01:44:18;5.37;;;1.73;;
4355;SDS011;2191;51.482;7.408;2022-07-29T01:46:52;1.70;;;1.33;;
4355;SDS011;2191;51.482;7.408;2022-07-29T01:49:41;4.57;;;1.57;;
4355;SDS011;2191;51.482;7.408;2022-07-29T01:52:27;3.53;;;1.90;;
4355;SDS011;2191;51.482;7.408;2022-07-29T01:55:04;5.90;;;1.70;;
4355;SDS011;2191;51.482;7.408;2022-07-29T01:57:38;2.93;;;2.10;;
4355;SDS011;2191;51.482;7.408;2022-07-29T02:00:11;3.83;;;1.90;;
4355;SDS011;2191;51.482;7.408;2022-07-29T02:03:04;6.97;;;1.90;;
4355;SDS011;2191;51.482;7.408;2022-07-29T02:05:36;4.20;;;2.20;;
4355;SDS011;2191;51.482;7.408;2022-07-29T02:08:14;5.03;;;1.87;;
4355;SDS011;2191;51.482;7.408;2022-07-29T02:10:44;4.63;;;1.80;;
4355;SDS011;2191;51.482;7.408;2022-07-29T02:13:12;9.93;;;2.30;;
4355;SDS011;2191;51.482;7.408;2022-07-29T02:15:47;3.57;;;1.80;;
4355;SDS011;2191;51.482;7.408;2022-07-29T02:18:17;4.20;;;1.87;;
4355;SDS011;2191;51.482;7.408;2022-07-29T02:20:50;4.07;;;1.70;;
4355;SDS011;2191;51.482;7.408;2022-07-29T02:23:21;7.60;;;2.20;;
4355;SDS011;2191;51.482;7.408;2022-07-29T02:25:52;3.30;;;1.87;;
4355;SDS011;2191;51.482;7.408;2022-07-29T02:28:23;5.90;;;1.80;;
4355;SDS011;2191;51.482;7.408;2022-07-29T02:30:58;6.50;;;2.03;;
4355;SDS011;2191;51.482;7.408;2022-07-29T02:33:31;6.10;;;2.10;;
4355;SDS011;2191;51.482;7.408;2022-07-29T02:36:03;3.83;;;2.07;;
4355;SDS011;2191;51.482;7.408;2022-07-29T02:38:37;3.63;;;1.57;;
4355;SDS011;2191;51.482;7.408;2022-07-29T02:41:24;5.13;;;1.80;;
4355;SDS011;2191;51.482;7.408;2022-07-29T02:43:56;6.30;;;1.63;;
4355;SDS011;2191;51.482;7.408;2022-07-29T02:46:32;5.27;;;1.97;;
4355;SDS011;2191;51.482;7.408;2022-07-29T02:49:04;6.57;;;2.43;;
4355;SDS011;2191;51.482;7.408;2022-07-29T02:51:40;2.53;;;1.80;;
4355;SDS011;2191;51.482;7.408;2022-07-29T02:54:20;6.17;;;2.33;;
4355;SDS011;2191;51.482;7.408;2022-07-29T02:56:55;4.33;;;1.90;;
4355;SDS011;2191;51.482;7.408;2022-07-29T02:59:30;4.40;;;2.00;;
4355;SDS011;2191;51.482;7.408;2022-07-29T03:02:07;5.07;;;2.20;;
4355;SDS011;2191;51.482;7.408;2022-07-29T03:04:37;2.80;;;1.80;;
4355;SDS011;2191;51.482;7.408;2022-07-29T03:07:11;3.50;;;2.17;;
4355;SDS011;2191;51.482;7.408;2022-07-29T03:09:42;4.80;;;2.00;;
4355;SDS011;2191;51.482;7.408;2022-07-29T03:12:17;3.93;;;1.80;;
4355;SDS011;2191;51.482;7.408;2022-07-29T03:14:45;9.30;;;2.20;;
4355;SDS011;2191;51.482;7.408;2022-07-29T03:17:15;5.13;;;1.83;;
4355;SDS011;2191;51.482;7.408;2022-07-29T03:19:43;5.13;;;2.13;;
4355;SDS011;2191;51.482;7.408;2022-07-29T03:22:11;4.97;;;2.13;;
4355;SDS011;2191;51.482;7.408;2022-07-29T03:24:44;4.17;;;1.43;;
4355;SDS011;2191;51.482;7.408;2022-07-29T03:27:12;4.63;;;2.10;;
4355;SDS011;2191;51.482;7.408;2022-07-29T03:29:43;5.07;;;2.37;;
4355;SDS011;2191;51.482;7.408;2022-07-29T03:32:29;3.00;;;1.83;;
4355;SDS011;2191;51.482;7.408;2022-07-29T03:34:57;3.40;;;2.10;;
4355;SDS011;2191;51.482;7.408;2022-07-29T03:37:28;4.50;;;1.93;;
4355;SDS011;2191;51.482;7.408;2022-07-29T03:39:57;6.00;;;1.80;;
4355;SDS011;2191;51.482;7.408;2022-07-29T03:42:26;10.73;;;2.37;;
4355;SDS011;2191;51.482;7.408;2022-07-29T03:45:00;5.23;;;1.77;;
4355;SDS011;2191;51.482;7.408;2022-07-29T03:47:34;4.33;;;1.90;;
4355;SDS011;2191;51.482;7.408;2022-07-29T03:50:16;6.80;;;1.83;;
4355;SDS011;2191;51.482;7.408;2022-07-29T03:52:46;7.43;;;1.93;;
4355;SDS011;2191;51.482;7.408;2022-07-29T03:55:15;4.13;;;1.90;;
4355;SDS011;2191;51.482;7.408;2022-07-29T03:57:44;4.47;;;1.67;;
4355;SDS011;2191;51.482;7.408;2022-07-29T04:00:15;4.40;;;2.10;;
4355;SDS011;2191;51.482;7.408;2022-07-29T04:02:45;9.17;;;2.00;;
4355;SDS011;2191;51.482;7.408;2022-07-29T04:05:15;5.77;;;2.03;;
4355;SDS011;2191;51.482;7.408;2022-07-29T04:07:44;9.07;;;2.03;;
4355;SDS011;2191;51.482;7.408;2022-07-29T04:10:12;6.30;;;2.03;;
4355;SDS011;2191;51.482;7.408;2022-07-29T04:12:57;11.37;;;1.97;;
4355;SDS011;2191;51.482;7.408;2022-07-29T04:15:30;4.50;;;2.07;;
4355;SDS011;2191;51.482;7.408;2022-07-29T04:18:00;8.23;;;2.57;;
4355;SDS011;2191;51.482;7.408;2022-07-29T04:20:28;8.00;;;2.47;;
4355;SDS011;2191;51.482;7.408;2022-07-29T04:22:56;7.60;;;2.00;;
4355;SDS011;2191;51.482;7.408;2022-07-29T04:25:24;7.93;;;2.13;;
4355;SDS011;2191;51.482;7.408;2022-07-29T04:27:54;2.90;;;2.00;;
4355;SDS011;2191;51.482;7.408;2022-07-29T04:30:28;7.33;;;2.77;;
4355;SDS011;2191;51.482;7.408;2022-07-29T04:32:57;8.00;;;2.00;;
4355;SDS011;2191;51.482;7.408;2022-07-29T04:35:30;5.10;;;2.23;;
4355;SDS011;2191;51.482;7.408;2022-07-29T04:38:04;6.40;;;2.20;;
4355;SDS011;2191;51.482;7.408;2022-07-29T04:40:45;4.30;;;2.00;;
4355;SDS011;2191;51.482;7.408;2022-07-29T04:43:15;5.70;;;1.60;;
4355;SDS011;2191;51.482;7.408;2022-07-29T04:45:47;5.40;;;2.30;;
4355;SDS011;2191;51.482;7.408;2022-07-29T04:48:18;3.20;;;2.20;;
4355;SDS011;2191;51.482;7.408;2022-07-29T04:50:55;3.60;;;1.60;;
4355;SDS011;2191;51.482;7.408;2022-07-29T04:53:23;8.33;;;1.80;;
4355;SDS011;2191;51.482;7.408;2022-07-29T04:55:52;5.90;;;2.30;;
4355;SDS011;2191;51.482;7.408;2022-07-29T04:58:19;12.00;;;2.83;;
4355;SDS011;2191;51.482;7.408;2022-07-29T05:00:49;7.57;;;2.27;;
4355;SDS011;2191;51.482;7.408;2022-07-29T05:03:24;2.20;;;1.57;;
4355;SDS011;2191;51.482;7.408;2022-07-29T05:05:52;5.13;;;1.67;;
4355;SDS011;2191;51.482;7.408;2022-07-29T05:08:22;5.53;;;1.87;;
4355;SDS011;2191;51.482;7.408;2022-07-29T05:10:49;5.33;;;2.13;;
4355;SDS011;2191;51.482;7.408;2022-07-29T05:13:29;3.50;;;1.90;;
4355;SDS011;2191;51.482;7.408;2022-07-29T05:16:12;6.10;;;2.50;;
4355;SDS011;2191;51.482;7.408;2022-07-29T05:18:40;6.03;;;3.00;;
4355;SDS011;2191;51.482;7.408;2022-07-29T05:21:12;5.80;;;2.53;;
4355;SDS011;2191;51.482;7.408;2022-07-29T05:23:40;4.90;;;2.47;;
4355;SDS011;2191;51.482;7.408;2022-07-29T05:26:08;6.97;;;2.80;;
4355;SDS011;2191;51.482;7.408;2022-07-29T05:28:36;3.90;;;2.40;;
4355;SDS011;2191;51.482;7.408;2022-07-29T05:31:04;4.43;;;2.27;;
4355;SDS011;2191;51.482;7.408;2022-07-29T05:33:32;6.63;;;2.43;;
4355;SDS011;2191;51.482;7.408;2022-07-29T05:36:02;5.60;;;2.60;;
4355;SDS011;2191;51.482;7.408;2022-07-29T05:38:45;6.00;;;2.90;;
4355;SDS011;2191;51.482;7.408;2022-07-29T05:41:13;8.70;;;3.20;;
4355;SDS011;2191;51.482;7.408;2022-07-29T05:43:40;8.47;;;2.97;;
4355;SDS011;2191;51.482;7.408;2022-07-29T05:46:11;7.90;;;2.90;;
4355;SDS011;2191;51.482;7.408;2022-07-29T05:48:42;6.20;;;3.30;;
4355;SDS011;2191;51.482;7.408;2022-07-29T05:51:15;5.43;;;2.33;;
4355;SDS011;2191;51.482;7.408;2022-07-29T05:53:44;4.57;;;2.30;;
4355;SDS011;2191;51.482;7.408;2022-07-29T05:56:12;5.70;;;2.47;;
4355;SDS011;2191;51.482;7.408;2022-07-29T05:58:40;6.83;;;2.43;;
4355;SDS011;2191;51.482;7.408;2022-07-29T06:01:08;4.33;;;2.20;;
4355;SDS011;2191;51.482;7.408;2022-07-29T06:03:36;4.90;;;2.30;;
4355;SDS011;2191;51.482;7.408;2022-07-29T06:06:04;5.57;;;2.67;;
4355;SDS011;2191;51.482;7.408;2022-07-29T06:08:35;7.17;;;4.20;;
4355;SDS011;2191;51.482;7.408;2022-07-29T06:11:08;8.60;;;3.73;;
4355;SDS011;2191;51.482;7.408;2022-07-29T06:13:36;7.13;;;2.77;;
4355;SDS011;2191;51.482;7.408;2022-07-29T06:16:07;4.47;;;2.23;;
4355;SDS011;2191;51.482;7.408;2022-07-29T06:18:40;4.07;;;2.33;;
4355;SDS011;2191;51.482;7.408;2022-07-29T06:21:11;3.03;;;2.73;;
4355;SDS011;2191;51.482;7.408;2022-07-29T06:23:47;3.90;;;3.07;;
4355;SDS011;2191;51.482;7.408;2022-07-29T06:26:16;6.30;;;2.80;;
4355;SDS011;2191;51.482;7.408;2022-07-29T06:28:57;6.17;;;2.90;;
4355;SDS011;2191;51.482;7.408;2022-07-29T06:31:25;5.60;;;2.70;;
4355;SDS011;2191;51.482;7.408;2022-07-29T06:33:53;5.80;;;2.50;;
4355;SDS011;2191;51.482;7.408;2022-07-29T06:36:24;6.47;;;2.97;;
4355;SDS011;2191;51.482;7.408;2022-07-29T06:38:56;8.33;;;2.67;;
4355;SDS011;2191;51.482;7.408;2022-07-29T06:41:30;4.90;;;2.33;;
4355;SDS011;2191;51.482;7.408;2022-07-29T06:43:58;5.93;;;2.83;;
4355;SDS011;2191;51.482;7.408;2022-07-29T06:46:37;5.37;;;2.73;;
4355;SDS011;2191;51.482;7.408;2022-07-29T06:49:08;3.77;;;2.40;;
4355;SDS011;2191;51.482;7.408;2022-07-29T06:51:36;6.37;;;2.33;;
4355;SDS011;2191;51.482;7.408;2022-07-29T06:54:06;10.03;;;2.40;;
4355;SDS011;2191;51.482;7.408;2022-07-29T06:56:38;5.93;;;3.10;;
4355;SDS011;2191;51.482;7.408;2022-07-29T06:59:08;6.87;;;2.70;;
4355;SDS011;2191;51.482;7.408;2022-07-29T07:01:38;3.73;;;2.50;;
4355;SDS011;2191;51.482;7.408;2022-07-29T07:04:19;4.73;;;2.50;;
4355;SDS011;2191;51.482;7.408;2022-07-29T07:06:54;7.73;;;3.10;;
4355;SDS011;2191;51.482;7.408;2022-07-29T07:09:22;8.10;;;2.67;;
4355;SDS011;2191;51.482;7.408;2022-07-29T07:12:17;2.97;;;1.90;;
4355;SDS011;2191;51.482;7.408;2022-07-29T07:14:48;7.30;;;3.10;;
4355;SDS011;2191;51.482;7.408;2022-07-29T07:17:16;6.17;;;2.70;;
4355;SDS011;2191;51.482;7.408;2022-07-29T07:19:44;7.63;;;2.57;;
4355;SDS011;2191;51.482;7.408;2022-07-29T07:22:12;5.43;;;2.33;;
4355;SDS011;2191;51.482;7.408;2022-07-29T07:24:40;5.47;;;2.23;;
4355;SDS011;2191;51.482;7.408;2022-07-29T07:27:09;5.60;;;2.40;;
4355;SDS011;2191;51.482;7.408;2022-07-29T07:29:37;11.70;;;2.80;;
4355;SDS011;2191;51.482;7.408;2022-07-29T07:32:09;5.33;;;2.50;;
4355;SDS011;2191;51.482;7.408;2022-07-29T07:34:45;4.23;;;2.50;;
4355;SDS011;2191;51.482;7.408;2022-07-29T07:37:20;10.83;;;2.60;;
4355;SDS011;2191;51.482;7.408;2022-07-29T07:39:50;4.87;;;2.47;;
4355;SDS011;2191;51.482;7.408;2022-07-29T07:42:19;4.60;;;2.03;;
4355;SDS011;2191;51.482;7.408;2022-07-29T07:44:50;6.97;;;2.60;;
4355;SDS011;2191;51.482;7.408;2022-07-29T07:47:38;3.60;;;2.13;;
4355;SDS011;2191;51.482;7.408;2022-07-29T07:50:08;4.77;;;2.70;;
4355;SDS011;2191;51.482;7.408;2022-07-29T07:52:47;5.70;;;2.30;;
4355;SDS011;2191;51.482;7.408;2022-07-29T07:55:17;7.50;;;2.63;;
4355;SDS011;2191;51.482;7.408;2022-07-29T07:57:47;7.20;;;2.30;;
4355;SDS011;2191;51.482;7.408;2022-07-29T08:00:16;4.67;;;2.53;;
4355;SDS011;2191;51.482;7.408;2022-07-29T08:02:48;3.80;;;2.17;;
4355;SDS011;2191;51.482;7.408;2022-07-29T08:05:16;5.47;;;2.27;;
4355;SDS011;2191;51.482;7.408;2022-07-29T08:07:51;6.30;;;2.03;;
4355;SDS011;2191;51.482;7.408;2022-07-29T08:10:19;3.80;;;2.03;;
4355;SDS011;2191;51.482;7.408;2022-07-29T08:13:06;6.27;;;3.03;;
4355;SDS011;2191;51.482;7.408;2022-07-29T08:15:38;8.83;;;2.73;;
4355;SDS011;2191;51.482;7.408;2022-07-29T08:18:09;6.60;;;3.00;;
4355;SDS011;2191;51.482;7.408;2022-07-29T08:20:38;4.53;;;2.57;;
4355;SDS011;2191;51.482;7.408;2022-07-29T08:23:07;9.93;;;3.23;;
4355;SDS011;2191;51.482;7.408;2022-07-29T08:25:36;6.90;;;2.90;;
4355;SDS011;2191;51.482;7.408;2022-07-29T08:28:09;6.00;;;2.07;;
4355;SDS011;2191;51.482;7.408;2022-07-29T08:30:44;5.03;;;3.30;;
4355;SDS011;2191;51.482;7.408;2022-07-29T08:33:12;10.67;;;2.90;;
4355;SDS011;2191;51.482;7.408;2022-07-29T08:35:40;12.77;;;3.33;;
4355;SDS011;2191;51.482;7.408;2022-07-29T08:38:10;6.50;;;3.37;;
4355;SDS011;2191;51.482;7.408;2022-07-29T08:40:38;9.80;;;2.90;;
4355;SDS011;2191;51.482;7.408;2022-07-29T08:43:13;3.67;;;2.60;;
4355;SDS011;2191;51.482;7.408;2022-07-29T08:45:42;8.03;;;2.70;;
4355;SDS011;2191;51.482;7.408;2022-07-29T08:48:17;8.07;;;3.00;;
4355;SDS011;2191;51.482;7.408;2022-07-29T08:50:52;5.43;;;2.70;;
4355;SDS011;2191;51.482;7.408;2022-07-29T08:53:21;10.43;;;2.93;;
4355;SDS011;2191;51.482;7.408;2022-07-29T08:55:52;5.83;;;3.43;;
4355;SDS011;2191;51.482;7.408;2022-07-29T08:58:25;5.80;;;2.73;;
4355;SDS011;2191;51.482;7.408;2022-07-29T09:01:03;7.13;;;3.10;;
4355;SDS011;2191;51.482;7.408;2022-07-29T09:03:33;8.53;;;4.27;;
4355;SDS011;2191;51.482;7.408;2022-07-29T09:06:06;4.47;;;3.40;;
4355;SDS011;2191;51.482;7.408;2022-07-29T09:08:40;5.80;;;2.87;;
4355;SDS011;2191;51.482;7.408;2022-07-29T09:11:11;6.40;;;3.20;;
4355;SDS011;2191;51.482;7.408;2022-07-29T09:13:41;6.17;;;3.00;;
4355;SDS011;2191;51.482;7.408;2022-07-29T09:16:12;11.43;;;3.07;;
4355;SDS011;2191;51.482;7.408;2022-07-29T09:19:01;4.97;;;2.63;;
4355;SDS011;2191;51.482;7.408;2022-07-29T09:21:33;11.83;;;3.17;;
4355;SDS011;2191;51.482;7.408;2022-07-29T09:24:39;7.03;;;3.87;;
4355;SDS011;2191;51.482;7.408;2022-07-29T09:27:22;3.43;;;2.63;;
4355;SDS011;2191;51.482;7.408;2022-07-29T09:29:59;4.53;;;2.77;;
4355;SDS011;2191;51.482;7.408;2022-07-29T09:32:28;6.10;;;2.90;;
4355;SDS011;2191;51.482;7.408;2022-07-29T09:35:16;9.63;;;3.70;;
4355;SDS011;2191;51.482;7.408;2022-07-29T09:37:46;9.00;;;2.70;;
4355;SDS011;2191;51.482;7.408;2022-07-29T09:40:25;8.10;;;3.27;;
4355;SDS011;2191;51.482;7.408;2022-07-29T09:43:09;8.07;;;2.83;;
4355;SDS011;2191;51.482;7.408;2022-07-29T09:45:39;7.90;;;3.93;;
4355;SDS011;2191;51.482;7.408;2022-07-29T09:48:18;9.77;;;5.67;;
4355;SDS011;2191;51.482;7.408;2022-07-29T09:50:54;10.90;;;6.13;;
4355;SDS011;2191;51.482;7.408;2022-07-29T09:53:30;13.80;;;4.53;;
4355;SDS011;2191;51.482;7.408;2022-07-29T09:55:59;12.33;;;3.87;;
4355;SDS011;2191;51.482;7.408;2022-07-29T09:58:36;12.03;;;4.20;;
4355;SDS011;2191;51.482;7.408;2022-07-29T10:01:06;4.93;;;3.57;;
4355;SDS011;2191;51.482;7.408;2022-07-29T10:03:49;4.60;;;3.27;;
4355;SDS011;2191;51.482;7.408;2022-07-29T10:06:21;8.43;;;3.50;;
4355;SDS011;2191;51.482;7.408;2022-07-29T10:08:48;8.30;;;3.70;;
4355;SDS011;2191;51.482;7.408;2022-07-29T10:11:17;6.70;;;3.03;;
4355;SDS011;2191;51.482;7.408;2022-07-29T10:13:48;8.43;;;3.43;;
4355;SDS011;2191;51.482;7.408;2022-07-29T10:16:17;5.67;;;3.53;;
4355;SDS011;2191;51.482;7.408;2022-07-29T10:18:45;12.00;;;3.27;;
4355;SDS011;2191;51.482;7.408;2022-07-29T10:21:23;8.63;;;3.53;;
4355;SDS011;2191;51.482;7.408;2022-07-29T10:24:01;8.07;;;4.07;;
4355;SDS011;2191;51.482;7.408;2022-07-29T10:26:31;9.57;;;4.73;;
4355;SDS011;2191;51.482;7.408;2022-07-29T10:29:00;6.73;;;4.90;;
4355;SDS011;2191;51.482;7.408;2022-07-29T10:31:36;6.27;;;4.70;;
4355;SDS011;2191;51.482;7.408;2022-07-29T10:34:13;8.47;;;4.77;;
4355;SDS011;2191;51.482;7.408;2022-07-29T10:36:53;6.60;;;4.80;;
4355;SDS011;2191;51.482;7.408;2022-07-29T10:39:38;11.40;;;5.00;;
4355;SDS011;2191;51.482;7.408;2022-07-29T10:42:16;7.60;;;5.17;;
4355;SDS011;2191;51.482;7.408;2022-07-29T10:44:59;9.17;;;4.57;;
4355;SDS011;2191;51.482;7.408;2022-07-29T10:47:31;4.97;;;4.47;;
4355;SDS011;2191;51.482;7.408;2022-07-29T10:50:01;8.70;;;4.50;;
4355;SDS011;2191;51.482;7.408;2022-07-29T10:55:32;9.30;;;4.80;;
4355;SDS011;2191;51.482;7.408;2022-07-29T10:58:12;11.13;;;4.83;;
4355;SDS011;2191;51.482;7.408;2022-07-29T11:00:44;7.97;;;5.17;;
4355;SDS011;2191;51.482;7.408;2022-07-29T11:06:22;7.33;;;4.93;;
4355;SDS011;2191;51.482;7.408;2022-07-29T11:11:50;6.83;;;4.57;;
4355;SDS011;2191;51.482;7.408;2022-07-29T11:14:18;8.10;;;3.73;;
4355;SDS011;2191;51.482;7.408;2022-07-29T11:17:23;9.40;;;4.83;;
4355;SDS011;2191;51.482;7.408;2022-07-29T11:23:17;9.80;;;3.80;;
4355;SDS011;2191;51.482;7.408;2022-07-29T11:25:54;6.30;;;4.17;;
4355;SDS011;2191;51.482;7.408;2022-07-29T11:28:48;6.50;;;3.80;;
4355;SDS011;2191;51.482;7.408;2022-07-29T11:31:38;4.77;;;3.50;;
4355;SDS011;2191;51.482;7.408;2022-07-29T11:34:20;6.47;;;4.50;;
4355;SDS011;2191;51.482;7.408;2022-07-29T11:42:44;6.93;;;3.50;;
4355;SDS011;2191;51.482;7.408;2022-07-29T11:45:19;5.80;;;3.03;;
4355;SDS011;2191;51.482;7.408;2022-07-29T11:48:14;7.53;;;3.30;;
4355;SDS011;2191;51.482;7.408;2022-07-29T11:50:55;6.63;;;3.00;;
4355;SDS011;2191;51.482;7.408;2022-07-29T11:53:25;6.20;;;4.00;;
4355;SDS011;2191;51.482;7.408;2022-07-29T11:55:58;5.57;;;2.80;;
4355;SDS011;2191;51.482;7.408;2022-07-29T11:58:28;3.17;;;2.67;;
4355;SDS011;2191;51.482;7.408;2022-07-29T12:00:57;6.83;;;2.97;;
4355;SDS011;2191;51.482;7.408;2022-07-29T12:03:33;8.17;;;3.20;;
4355;SDS011;2191;51.482;7.408;2022-07-29T12:06:11;10.43;;;3.83;;
4355;SDS011;2191;51.482;7.408;2022-07-29T12:08:51;6.97;;;3.40;;
4355;SDS011;2191;51.482;7.408;2022-07-29T12:11:21;7.00;;;3.30;;
4355;SDS011;2191;51.482;7.408;2022-07-29T12:13:51;7.83;;;3.70;;
4355;SDS011;2191;51.482;7.408;2022-07-29T12:16:20;3.83;;;3.47;;
4355;SDS011;2191;51.482;7.408;2022-07-29T12:18:55;7.30;;;3.60;;
4355;SDS011;2191;51.482;7.408;2022-07-29T12:21:24;4.80;;;2.90;;
4355;SDS011;2191;51.482;7.408;2022-07-29T12:23:57;5.23;;;3.40;;
4355;SDS011;2191;51.482;7.408;2022-07-29T12:26:34;4.50;;;3.70;;
4355;SDS011;2191;51.482;7.408;2022-07-29T12:29:03;6.37;;;2.90;;
4355;SDS011;2191;51.482;7.408;2022-07-29T12:31:40;8.03;;;2.97;;
4355;SDS011;2191;51.482;7.408;2022-07-29T12:34:11;6.90;;;2.90;;
4355;SDS011;2191;51.482;7.408;2022-07-29T12:36:40;17.97;;;4.00;;
4355;SDS011;2191;51.482;7.408;2022-07-29T12:39:13;7.23;;;3.90;;
4355;SDS011;2191;51.482;7.408;2022-07-29T12:41:46;4.33;;;3.53;;
4355;SDS011;2191;51.482;7.408;2022-07-29T12:44:14;8.53;;;3.60;;
4355;SDS011;2191;51.482;7.408;2022-07-29T12:46:42;6.67;;;3.67;;
4355;SDS011;2191;51.482;7.408;2022-07-29T12:49:28;5.20;;;2.70;;
4355;SDS011;2191;51.482;7.408;2022-07-29T12:54:54;8.93;;;3.03;;
4355;SDS011;2191;51.482;7.408;2022-07-29T12:57:22;6.83;;;2.80;;
4355;SDS011;2191;51.482;7.408;2022-07-29T13:00:00;8.80;;;3.20;;
4355;SDS011;2191;51.482;7.408;2022-07-29T13:02:38;9.77;;;3.30;;
4355;SDS011;2191;51.482;7.408;2022-07-29T13:05:07;9.07;;;3.90;;
4355;SDS011;2191;51.482;7.408;2022-07-29T13:07:51;6.30;;;3.80;;
4355;SDS011;2191;51.482;7.408;2022-07-29T13:10:24;6.93;;;4.07;;
4355;SDS011;2191;51.482;7.408;2022-07-29T13:13:05;8.27;;;3.70;;
4355;SDS011;2191;51.482;7.408;2022-07-29T13:15:35;11.63;;;3.60;;
4355;SDS011;2191;51.482;7.408;2022-07-29T13:18:04;10.20;;;3.57;;
4355;SDS011;2191;51.482;7.408;2022-07-29T13:20:52;5.50;;;3.30;;
4355;SDS011;2191;51.482;7.408;2022-07-29T13:23:20;11.30;;;3.90;;
4355;SDS011;2191;51.482;7.408;2022-07-29T13:25:50;7.53;;;3.00;;
4355;SDS011;2191;51.482;7.408;2022-07-29T13:28:19;25.23;;;3.07;;
4355;SDS011;2191;51.482;7.408;2022-07-29T13:30:47;8.23;;;2.90;;
4355;SDS011;2191;51.482;7.408;2022-07-29T13:33:15;3.77;;;2.87;;
4355;SDS011;2191;51.482;7.408;2022-07-29T13:35:48;6.90;;;2.53;;
4355;SDS011;2191;51.482;7.408;2022-07-29T13:38:16;7.20;;;2.70;;
4355;SDS011;2191;51.482;7.408;2022-07-29T13:40:44;6.07;;;3.80;;
4355;SDS011;2191;51.482;7.408;2022-07-29T13:43:14;5.20;;;3.00;;
4355;SDS011;2191;51.482;7.408;2022-07-29T13:45:45;8.50;;;3.03;;
4355;SDS011;2191;51.482;7.408;2022-07-29T13:48:13;10.00;;;3.40;;
4355;SDS011;2191;51.482;7.408;2022-07-29T13:50:41;3.80;;;2.87;;
4355;SDS011;2191;51.482;7.408;2022-07-29T13:53:11;5.83;;;2.90;;
4355;SDS011;2191;51.482;7.408;2022-07-29T13:55:46;5.73;;;3.00;;
4355;SDS011;2191;51.482;7.408;2022-07-29T13:58:15;4.47;;;2.77;;
4355;SDS011;2191;51.482;7.408;2022-07-29T14:00:43;3.30;;;2.90;;
4355;SDS011;2191;51.482;7.408;2022-07-29T14:03:12;4.80;;;2.87;;
4355;SDS011;2191;51.482;7.408;2022-07-29T14:05:40;5.10;;;3.17;;
4355;SDS011;2191;51.482;7.408;2022-07-29T14:08:10;5.43;;;2.47;;
4355;SDS011;2191;51.482;7.408;2022-07-29T14:10:38;6.90;;;2.73;;
4355;SDS011;2191;51.482;7.408;2022-07-29T14:13:06;3.13;;;2.27;;
4355;SDS011;2191;51.482;7.408;2022-07-29T14:15:51;3.20;;;2.90;;
4355;SDS011;2191;51.482;7.408;2022-07-29T14:18:19;5.80;;;2.57;;
4355;SDS011;2191;51.482;7.408;2022-07-29T14:20:47;5.43;;;2.67;;
4355;SDS011;2191;51.482;7.408;2022-07-29T14:23:18;5.13;;;2.97;;
4355;SDS011;2191;51.482;7.408;2022-07-29T14:25:46;3.80;;;2.50;;
4355;SDS011;2191;51.482;7.408;2022-07-29T14:28:14;5.90;;;3.07;;
4355;SDS011;2191;51.482;7.408;2022-07-29T14:30:45;7.73;;;3.00;;
4355;SDS011;2191;51.482;7.408;2022-07-29T14:33:18;7.50;;;3.20;;
4355;SDS011;2191;51.482;7.408;2022-07-29T14:35:46;10.60;;;2.73;;
4355;SDS011;2191;51.482;7.408;2022-07-29T14:38:14;7.53;;;3.10;;
4355;SDS011;2191;51.482;7.408;2022-07-29T14:40:42;4.23;;;2.77;;
4355;SDS011;2191;51.482;7.408;2022-07-29T14:43:16;7.20;;;3.10;;
4355;SDS011;2191;51.482;7.408;2022-07-29T14:45:47;10.10;;;3.43;;
4355;SDS011;2191;51.482;7.408;2022-07-29T14:48:21;3.50;;;2.87;;
4355;SDS011;2191;51.482;7.408;2022-07-29T14:50:52;8.27;;;2.90;;
4355;SDS011;2191;51.482;7.408;2022-07-29T14:53:20;5.10;;;3.30;;
4355;SDS011;2191;51.482;7.408;2022-07-29T14:55:57;6.20;;;2.80;;
4355;SDS011;2191;51.482;7.408;2022-07-29T14:58:44;3.30;;;2.30;;
4355;SDS011;2191;51.482;7.408;2022-07-29T15:01:17;6.10;;;3.23;;
4355;SDS011;2191;51.482;7.408;2022-07-29T15:03:46;4.50;;;2.80;;
4355;SDS011;2191;51.482;7.408;2022-07-29T15:06:14;4.63;;;2.60;;
4355;SDS011;2191;51.482;7.408;2022-07-29T15:08:42;7.37;;;3.07;;
4355;SDS011;2191;51.482;7.408;2022-07-29T15:11:23;7.87;;;3.30;;
4355;SDS011;2191;51.482;7.408;2022-07-29T15:13:51;3.70;;;2.40;;
4355;SDS011;2191;51.482;7.408;2022-07-29T15:16:21;5.27;;;3.60;;
4355;SDS011;2191;51.482;7.408;2022-07-29T15:18:56;3.43;;;2.23;;
4355;SDS011;2191;51.482;7.408;2022-07-29T15:21:29;4.97;;;2.87;;
4355;SDS011;2191;51.482;7.408;2022-07-29T15:23:57;5.53;;;2.50;;
4355;SDS011;2191;51.482;7.408;2022-07-29T15:26:25;7.93;;;2.73;;
4355;SDS011;2191;51.482;7.408;2022-07-29T15:28:53;4.93;;;2.90;;
4355;SDS011;2191;51.482;7.408;2022-07-29T15:31:22;5.93;;;2.60;;
4355;SDS011;2191;51.482;7.408;2022-07-29T15:33:54;7.33;;;3.23;;
4355;SDS011;2191;51.482;7.408;2022-07-29T15:36:30;9.53;;;3.23;;
4355;SDS011;2191;51.482;7.408;2022-07-29T15:39:17;9.63;;;3.20;;
4355;SDS011;2191;51.482;7.408;2022-07-29T15:41:51;9.67;;;3.63;;
4355;SDS011;2191;51.482;7.408;2022-07-29T15:44:19;3.37;;;2.83;;
4355;SDS011;2191;51.482;7.408;2022-07-29T15:46:50;3.90;;;2.70;;
4355;SDS011;2191;51.482;7.408;2022-07-29T15:49:36;9.50;;;3.23;;
4355;SDS011;2191;51.482;7.408;2022-07-29T15:52:14;9.33;;;3.10;;
4355;SDS011;2191;51.482;7.408;2022-07-29T15:54:51;10.07;;;3.00;;
4355;SDS011;2191;51.482;7.408;2022-07-29T15:57:20;4.27;;;2.30;;
4355;SDS011;2191;51.482;7.408;2022-07-29T15:59:48;6.47;;;3.47;;
4355;SDS011;2191;51.482;7.408;2022-07-29T16:02:17;7.80;;;3.10;;
4355;SDS011;2191;51.482;7.408;2022-07-29T16:04:49;4.20;;;2.97;;
4355;SDS011;2191;51.482;7.408;2022-07-29T16:07:23;6.97;;;2.30;;
4355;SDS011;2191;51.482;7.408;2022-07-29T16:09:57;6.30;;;3.07;;
4355;SDS011;2191;51.482;7.408;2022-07-29T16:12:27;4.40;;;1.90;;
4355;SDS011;2191;51.482;7.408;2022-07-29T16:14:54;4.57;;;2.77;;